sensor_id;sensor_type;location;lat;lon;timestamp;temperature;humidity
22771;DHT22;11552;50.786;4.332;2022-07-29T00:01:42;19.70;99.90
22771;DHT22;11552;50.786;4.332;2022-07-29T00:04:07;19.70;99.90
22771;DHT22;11552;50.786;4.332;2022-07-29T00:06:33;19.90;99.90
22771;DHT22;11552;50.786;4.332;2022-07-29T00:08:59;20.10;99.90
22771;DHT22;11552;50.786;4.332;2022-07-29T00:11:24;20.20;99.90
22771;DHT22;11552;50.786;4.332;2022-07-29T00:13:50;19.90;99.90
22771;DHT22;11552;50.786;4.332;2022-07-29T00:16:15;19.70;99.90
22771;DHT22;11552;50.786;4.332;2022-07-29T00:18:41;19.60;99.90
22771;DHT22;11552;50.786;4.332;2022-07-29T00:21:07;19.60;99.90
22771;DHT22;11552;50.786;4.332;2022-07-29T00:23:32;19.60;99.90
22771;DHT22;11552;50.786;4.332;2022-07-29T00:25:58;19.70;99.90
22771;DHT22;11552;50.786;4.332;2022-07-29T00:28:24;19.60;99.90
22771;DHT22;11552;50.786;4.332;2022-07-29T00:30:49;19.60;99.90
22771;DHT22;11552;50.786;4.332;2022-07-29T00:33:15;19.60;99.90
22771;DHT22;11552;50.786;4.332;2022-07-29T00:35:40;19.60;99.90
22771;DHT22;11552;50.786;4.332;2022-07-29T00:38:14;19.70;99.90
22771;DHT22;11552;50.786;4.332;2022-07-29T00:40:41;19.60;99.90
22771;DHT22;11552;50.786;4.332;2022-07-29T00:43:07;19.40;99.90
22771;DHT22;11552;50.786;4.332;2022-07-29T00:45:33;19.30;99.90
22771;DHT22;11552;50.786;4.332;2022-07-29T00:47:59;19.30;99.90
22771;DHT22;11552;50.786;4.332;2022-07-29T00:50:24;19.40;99.90
22771;DHT22;11552;50.786;4.332;2022-07-29T00:52:50;19.30;99.90
22771;DHT22;11552;50.786;4.332;2022-07-29T00:55:17;19.10;99.90
22771;DHT22;11552;50.786;4.332;2022-07-29T00:57:44;19.00;99.90
22771;DHT22;11552;50.786;4.332;2022-07-29T01:00:14;19.10;99.90
22771;DHT22;11552;50.786;4.332;2022-07-29T01:02:40;18.90;99.90
22771;DHT22;11552;50.786;4.332;2022-07-29T01:05:06;18.70;99.90
22771;DHT22;11552;50.786;4.332;2022-07-29T01:07:34;18.80;99.90
22771;DHT22;11552;50.786;4.332;2022-07-29T01:10:03;18.90;99.90
22771;DHT22;11552;50.786;4.332;2022-07-29T01:12:30;18.70;99.90
22771;DHT22;11552;50.786;4.332;2022-07-29T01:15:00;18.70;99.90
22771;DHT22;11552;50.786;4.332;2022-07-29T01:21:05;18.60;99.90
22771;DHT22;11552;50.786;4.332;2022-07-29T01:31:45;19.00;99.90
22771;DHT22;11552;50.786;4.332;2022-07-29T01:34:19;19.00;99.90
22771;DHT22;11552;50.786;4.332;2022-07-29T01:36:57;18.70;99.90
22771;DHT22;11552;50.786;4.332;2022-07-29T01:39:30;18.80;99.90
22771;DHT22;11552;50.786;4.332;2022-07-29T01:47:31;18.30;99.90
22771;DHT22;11552;50.786;4.332;2022-07-29T01:50:00;18.20;99.90
22771;DHT22;11552;50.786;4.332;2022-07-29T01:52:33;18.40;99.90
22771;DHT22;11552;50.786;4.332;2022-07-29T01:55:04;18.40;99.90
22771;DHT22;11552;50.786;4.332;2022-07-29T01:57:33;18.50;99.90
22771;DHT22;11552;50.786;4.332;2022-07-29T02:00:02;18.60;99.90
22771;DHT22;11552;50.786;4.332;2022-07-29T02:02:30;18.50;99.90
22771;DHT22;11552;50.786;4.332;2022-07-29T02:04:57;18.60;99.90
22771;DHT22;11552;50.786;4.332;2022-07-29T02:07:25;18.60;99.90
22771;DHT22;11552;50.786;4.332;2022-07-29T02:09:54;18.60;99.90
22771;DHT22;11552;50.786;4.332;2022-07-29T02:12:22;18.50;99.90
22771;DHT22;11552;50.786;4.332;2022-07-29T02:14:52;18.50;99.90
22771;DHT22;11552;50.786;4.332;2022-07-29T02:17:25;18.70;99.90
22771;DHT22;11552;50.786;4.332;2022-07-29T02:19:56;18.70;99.90
22771;DHT22;11552;50.786;4.332;2022-07-29T02:22:24;18.80;99.90
22771;DHT22;11552;50.786;4.332;2022-07-29T02:24:51;18.70;99.90
22771;DHT22;11552;50.786;4.332;2022-07-29T02:27:19;18.30;99.90
22771;DHT22;11552;50.786;4.332;2022-07-29T02:29:46;18.10;99.90
22771;DHT22;11552;50.786;4.332;2022-07-29T02:32:14;18.10;99.90
22771;DHT22;11552;50.786;4.332;2022-07-29T02:34:41;18.00;99.90
22771;DHT22;11552;50.786;4.332;2022-07-29T02:37:09;18.30;99.90
22771;DHT22;11552;50.786;4.332;2022-07-29T02:39:36;18.30;99.90
22771;DHT22;11552;50.786;4.332;2022-07-29T02:42:05;18.30;99.90
22771;DHT22;11552;50.786;4.332;2022-07-29T02:44:31;18.30;99.90
22771;DHT22;11552;50.786;4.332;2022-07-29T02:47:30;18.10;99.90
22771;DHT22;11552;50.786;4.332;2022-07-29T02:50:00;18.10;99.90
22771;DHT22;11552;50.786;4.332;2022-07-29T02:52:43;18.00;99.90
22771;DHT22;11552;50.786;4.332;2022-07-29T02:55:32;18.00;99.90
22771;DHT22;11552;50.786;4.332;2022-07-29T02:58:05;18.00;99.90
22771;DHT22;11552;50.786;4.332;2022-07-29T03:00:37;18.00;99.90
22771;DHT22;11552;50.786;4.332;2022-07-29T03:03:12;18.10;99.90
22771;DHT22;11552;50.786;4.332;2022-07-29T03:05:38;18.20;99.90
22771;DHT22;11552;50.786;4.332;2022-07-29T03:08:07;18.20;99.90
22771;DHT22;11552;50.786;4.332;2022-07-29T03:10:34;18.30;99.90
22771;DHT22;11552;50.786;4.332;2022-07-29T03:13:04;18.20;99.90
22771;DHT22;11552;50.786;4.332;2022-07-29T03:15:30;18.20;99.90
22771;DHT22;11552;50.786;4.332;2022-07-29T03:17:58;18.20;99.90
22771;DHT22;11552;50.786;4.332;2022-07-29T03:20:24;18.20;99.90
22771;DHT22;11552;50.786;4.332;2022-07-29T03:22:50;18.30;99.90
22771;DHT22;11552;50.786;4.332;2022-07-29T03:25:18;18.30;99.90
22771;DHT22;11552;50.786;4.332;2022-07-29T03:27:45;18.20;99.90
22771;DHT22;11552;50.786;4.332;2022-07-29T03:30:11;18.10;99.90
22771;DHT22;11552;50.786;4.332;2022-07-29T03:32:37;18.00;99.90
22771;DHT22;11552;50.786;4.332;2022-07-29T03:35:03;18.10;99.90
22771;DHT22;11552;50.786;4.332;2022-07-29T03:37:29;18.20;99.90
22771;DHT22;11552;50.786;4.332;2022-07-29T03:40:00;18.00;99.90
22771;DHT22;11552;50.786;4.332;2022-07-29T03:42:33;18.10;99.90
22771;DHT22;11552;50.786;4.332;2022-07-29T03:45:02;18.00;99.90
22771;DHT22;11552;50.786;4.332;2022-07-29T03:47:30;17.90;99.90
22771;DHT22;11552;50.786;4.332;2022-07-29T03:50:00;17.60;99.90
22771;DHT22;11552;50.786;4.332;2022-07-29T03:52:27;17.70;99.90
22771;DHT22;11552;50.786;4.332;2022-07-29T03:54:53;17.70;99.90
22771;DHT22;11552;50.786;4.332;2022-07-29T03:57:20;17.70;99.90
22771;DHT22;11552;50.786;4.332;2022-07-29T03:59:49;17.70;99.90
22771;DHT22;11552;50.786;4.332;2022-07-29T04:02:16;17.60;99.90
22771;DHT22;11552;50.786;4.332;2022-07-29T04:04:41;17.50;99.90
22771;DHT22;11552;50.786;4.332;2022-07-29T04:07:12;17.40;99.90
22771;DHT22;11552;50.786;4.332;2022-07-29T04:09:37;17.30;99.90
22771;DHT22;11552;50.786;4.332;2022-07-29T04:12:03;17.20;99.90
22771;DHT22;11552;50.786;4.332;2022-07-29T04:14:33;17.30;99.90
22771;DHT22;11552;50.786;4.332;2022-07-29T04:17:00;17.40;99.90
22771;DHT22;11552;50.786;4.332;2022-07-29T04:19:26;17.50;99.90
22771;DHT22;11552;50.786;4.332;2022-07-29T04:21:51;17.40;99.90
22771;DHT22;11552;50.786;4.332;2022-07-29T04:24:17;17.40;99.90
22771;DHT22;11552;50.786;4.332;2022-07-29T04:26:43;17.40;99.90
22771;DHT22;11552;50.786;4.332;2022-07-29T04:29:09;17.40;99.90
22771;DHT22;11552;50.786;4.332;2022-07-29T04:31:34;17.20;99.90
22771;DHT22;11552;50.786;4.332;2022-07-29T04:34:00;17.20;99.90
22771;DHT22;11552;50.786;4.332;2022-07-29T04:36:25;17.30;99.90
22771;DHT22;11552;50.786;4.332;2022-07-29T04:38:51;17.20;99.90
22771;DHT22;11552;50.786;4.332;2022-07-29T04:41:17;17.30;99.90
22771;DHT22;11552;50.786;4.332;2022-07-29T04:43:42;17.40;99.90
22771;DHT22;11552;50.786;4.332;2022-07-29T04:46:08;17.30;99.90
22771;DHT22;11552;50.786;4.332;2022-07-29T04:48:34;17.30;99.90
22771;DHT22;11552;50.786;4.332;2022-07-29T04:50:59;17.20;99.90
22771;DHT22;11552;50.786;4.332;2022-07-29T04:53:25;17.10;99.90
22771;DHT22;11552;50.786;4.332;2022-07-29T04:55:51;17.00;99.90
22771;DHT22;11552;50.786;4.332;2022-07-29T04:58:17;17.20;99.90
22771;DHT22;11552;50.786;4.332;2022-07-29T05:00:42;17.20;99.90
22771;DHT22;11552;50.786;4.332;2022-07-29T05:03:08;17.30;99.90
22771;DHT22;11552;50.786;4.332;2022-07-29T05:05:34;17.50;99.90
22771;DHT22;11552;50.786;4.332;2022-07-29T05:07:59;17.60;99.90
22771;DHT22;11552;50.786;4.332;2022-07-29T05:10:25;17.60;99.90
22771;DHT22;11552;50.786;4.332;2022-07-29T05:12:51;17.70;99.90
22771;DHT22;11552;50.786;4.332;2022-07-29T05:15:17;17.70;99.90
22771;DHT22;11552;50.786;4.332;2022-07-29T05:17:43;17.70;99.90
22771;DHT22;11552;50.786;4.332;2022-07-29T05:20:09;17.60;99.90
22771;DHT22;11552;50.786;4.332;2022-07-29T05:22:35;17.70;99.90
22771;DHT22;11552;50.786;4.332;2022-07-29T05:25:01;17.70;99.90
22771;DHT22;11552;50.786;4.332;2022-07-29T05:27:27;17.60;99.90
22771;DHT22;11552;50.786;4.332;2022-07-29T05:29:53;17.80;99.90
22771;DHT22;11552;50.786;4.332;2022-07-29T05:32:19;17.80;99.90
22771;DHT22;11552;50.786;4.332;2022-07-29T05:34:44;17.80;99.90
22771;DHT22;11552;50.786;4.332;2022-07-29T05:37:10;18.00;99.90
22771;DHT22;11552;50.786;4.332;2022-07-29T05:39:36;18.00;99.90
22771;DHT22;11552;50.786;4.332;2022-07-29T05:42:01;17.90;99.90
22771;DHT22;11552;50.786;4.332;2022-07-29T05:44:27;18.00;99.90
22771;DHT22;11552;50.786;4.332;2022-07-29T05:46:53;18.10;99.90
22771;DHT22;11552;50.786;4.332;2022-07-29T05:49:19;18.00;99.90
22771;DHT22;11552;50.786;4.332;2022-07-29T05:51:45;17.90;99.90
22771;DHT22;11552;50.786;4.332;2022-07-29T05:54:11;17.60;99.90
22771;DHT22;11552;50.786;4.332;2022-07-29T05:56:37;17.60;99.90
22771;DHT22;11552;50.786;4.332;2022-07-29T05:59:02;17.70;99.90
22771;DHT22;11552;50.786;4.332;2022-07-29T06:01:28;17.90;99.90
22771;DHT22;11552;50.786;4.332;2022-07-29T06:03:54;17.80;99.90
22771;DHT22;11552;50.786;4.332;2022-07-29T06:06:19;17.70;99.90
22771;DHT22;11552;50.786;4.332;2022-07-29T06:08:45;17.70;99.90
22771;DHT22;11552;50.786;4.332;2022-07-29T06:11:11;17.70;99.90
22771;DHT22;11552;50.786;4.332;2022-07-29T06:13:37;17.90;99.90
22771;DHT22;11552;50.786;4.332;2022-07-29T06:16:02;18.10;99.90
22771;DHT22;11552;50.786;4.332;2022-07-29T06:18:28;17.90;99.90
22771;DHT22;11552;50.786;4.332;2022-07-29T06:20:54;17.70;99.90
22771;DHT22;11552;50.786;4.332;2022-07-29T06:23:20;17.70;99.90
22771;DHT22;11552;50.786;4.332;2022-07-29T06:25:46;17.60;99.90
22771;DHT22;11552;50.786;4.332;2022-07-29T06:28:12;17.70;99.90
22771;DHT22;11552;50.786;4.332;2022-07-29T06:30:38;17.80;99.90
22771;DHT22;11552;50.786;4.332;2022-07-29T06:33:04;18.00;99.90
22771;DHT22;11552;50.786;4.332;2022-07-29T06:35:32;17.90;99.90
22771;DHT22;11552;50.786;4.332;2022-07-29T06:37:58;18.30;99.90
22771;DHT22;11552;50.786;4.332;2022-07-29T06:40:23;18.40;99.90
22771;DHT22;11552;50.786;4.332;2022-07-29T06:43:08;18.60;99.90
22771;DHT22;11552;50.786;4.332;2022-07-29T06:45:34;19.20;99.90
22771;DHT22;11552;50.786;4.332;2022-07-29T06:48:00;19.50;99.90
22771;DHT22;11552;50.786;4.332;2022-07-29T06:50:25;19.90;99.90
22771;DHT22;11552;50.786;4.332;2022-07-29T06:52:51;20.50;99.90
22771;DHT22;11552;50.786;4.332;2022-07-29T06:55:17;20.60;99.90
22771;DHT22;11552;50.786;4.332;2022-07-29T06:57:45;21.20;99.90
22771;DHT22;11552;50.786;4.332;2022-07-29T07:00:12;21.60;99.90
22771;DHT22;11552;50.786;4.332;2022-07-29T07:02:37;22.00;99.90
22771;DHT22;11552;50.786;4.332;2022-07-29T07:05:03;22.30;99.90
22771;DHT22;11552;50.786;4.332;2022-07-29T07:07:30;22.70;99.90
22771;DHT22;11552;50.786;4.332;2022-07-29T07:09:56;22.80;99.90
22771;DHT22;11552;50.786;4.332;2022-07-29T07:12:22;22.80;99.90
22771;DHT22;11552;50.786;4.332;2022-07-29T07:14:47;23.00;99.90
22771;DHT22;11552;50.786;4.332;2022-07-29T07:17:13;22.90;99.90
22771;DHT22;11552;50.786;4.332;2022-07-29T07:19:39;22.70;99.90
22771;DHT22;11552;50.786;4.332;2022-07-29T07:22:04;22.70;99.90
22771;DHT22;11552;50.786;4.332;2022-07-29T07:24:30;22.80;99.90
22771;DHT22;11552;50.786;4.332;2022-07-29T07:26:56;22.90;99.90
22771;DHT22;11552;50.786;4.332;2022-07-29T07:29:21;22.70;99.90
22771;DHT22;11552;50.786;4.332;2022-07-29T07:31:47;22.40;99.90
22771;DHT22;11552;50.786;4.332;2022-07-29T07:34:12;22.20;99.90
22771;DHT22;11552;50.786;4.332;2022-07-29T07:36:38;22.20;99.90
22771;DHT22;11552;50.786;4.332;2022-07-29T07:39:04;22.10;99.90
22771;DHT22;11552;50.786;4.332;2022-07-29T07:41:30;22.10;99.90
22771;DHT22;11552;50.786;4.332;2022-07-29T07:43:56;22.10;99.90
22771;DHT22;11552;50.786;4.332;2022-07-29T07:46:21;22.00;99.90
22771;DHT22;11552;50.786;4.332;2022-07-29T07:48:47;22.10;99.90
22771;DHT22;11552;50.786;4.332;2022-07-29T07:51:13;22.10;99.90
22771;DHT22;11552;50.786;4.332;2022-07-29T07:53:38;21.90;99.90
22771;DHT22;11552;50.786;4.332;2022-07-29T07:56:04;22.50;99.90
22771;DHT22;11552;50.786;4.332;2022-07-29T07:58:32;23.80;99.90
22771;DHT22;11552;50.786;4.332;2022-07-29T08:00:57;25.80;98.90
22771;DHT22;11552;50.786;4.332;2022-07-29T08:03:23;27.80;93.10
22771;DHT22;11552;50.786;4.332;2022-07-29T08:05:48;29.60;87.00
22771;DHT22;11552;50.786;4.332;2022-07-29T08:08:16;30.30;79.70
22771;DHT22;11552;50.786;4.332;2022-07-29T08:10:41;31.00;75.90
22771;DHT22;11552;50.786;4.332;2022-07-29T08:13:23;31.00;74.70
22771;DHT22;11552;50.786;4.332;2022-07-29T08:15:49;32.00;70.40
22771;DHT22;11552;50.786;4.332;2022-07-29T08:18:29;32.00;68.10
22771;DHT22;11552;50.786;4.332;2022-07-29T08:20:55;31.90;67.40
22771;DHT22;11552;50.786;4.332;2022-07-29T08:23:21;31.30;68.40
22771;DHT22;11552;50.786;4.332;2022-07-29T08:25:49;31.20;68.50
22771;DHT22;11552;50.786;4.332;2022-07-29T08:28:15;32.60;64.80
22771;DHT22;11552;50.786;4.332;2022-07-29T08:30:40;32.30;65.50
22771;DHT22;11552;50.786;4.332;2022-07-29T08:33:06;33.00;63.40
22771;DHT22;11552;50.786;4.332;2022-07-29T08:35:32;33.80;59.80
22771;DHT22;11552;50.786;4.332;2022-07-29T08:37:57;33.20;60.30
22771;DHT22;11552;50.786;4.332;2022-07-29T08:40:23;33.40;60.20
22771;DHT22;11552;50.786;4.332;2022-07-29T08:42:50;33.80;58.60
22771;DHT22;11552;50.786;4.332;2022-07-29T08:45:16;34.10;58.40
22771;DHT22;11552;50.786;4.332;2022-07-29T08:47:44;34.10;57.60
22771;DHT22;11552;50.786;4.332;2022-07-29T08:50:10;33.50;58.20
22771;DHT22;11552;50.786;4.332;2022-07-29T08:52:38;33.70;58.40
22771;DHT22;11552;50.786;4.332;2022-07-29T08:55:05;33.90;57.10
22771;DHT22;11552;50.786;4.332;2022-07-29T08:57:33;34.80;56.20
22771;DHT22;11552;50.786;4.332;2022-07-29T09:00:00;36.30;53.50
22771;DHT22;11552;50.786;4.332;2022-07-29T09:02:28;36.80;52.00
22771;DHT22;11552;50.786;4.332;2022-07-29T09:04:56;38.00;49.80
22771;DHT22;11552;50.786;4.332;2022-07-29T09:07:23;37.30;50.30
22771;DHT22;11552;50.786;4.332;2022-07-29T09:09:49;38.40;47.70
22771;DHT22;11552;50.786;4.332;2022-07-29T09:12:14;37.60;47.80
22771;DHT22;11552;50.786;4.332;2022-07-29T09:14:40;36.60;48.20
22771;DHT22;11552;50.786;4.332;2022-07-29T09:17:07;33.70;51.50
22771;DHT22;11552;50.786;4.332;2022-07-29T09:19:35;33.10;53.40
22771;DHT22;11552;50.786;4.332;2022-07-29T09:22:04;33.70;53.00
22771;DHT22;11552;50.786;4.332;2022-07-29T09:24:43;34.90;51.40
22771;DHT22;11552;50.786;4.332;2022-07-29T09:27:21;35.80;49.40
22771;DHT22;11552;50.786;4.332;2022-07-29T09:29:55;36.20;46.90
22771;DHT22;11552;50.786;4.332;2022-07-29T09:32:21;36.70;46.90
22771;DHT22;11552;50.786;4.332;2022-07-29T09:34:47;35.90;47.20
22771;DHT22;11552;50.786;4.332;2022-07-29T09:37:26;33.70;49.70
22771;DHT22;11552;50.786;4.332;2022-07-29T09:39:51;32.60;53.00
22771;DHT22;11552;50.786;4.332;2022-07-29T09:42:27;34.50;50.80
22771;DHT22;11552;50.786;4.332;2022-07-29T09:44:53;35.50;49.40
22771;DHT22;11552;50.786;4.332;2022-07-29T09:47:19;36.70;47.20
22771;DHT22;11552;50.786;4.332;2022-07-29T09:49:55;37.50;45.30
22771;DHT22;11552;50.786;4.332;2022-07-29T09:52:24;37.20;45.00
22771;DHT22;11552;50.786;4.332;2022-07-29T09:54:49;36.40;46.80
22771;DHT22;11552;50.786;4.332;2022-07-29T09:57:41;37.10;45.40
22771;DHT22;11552;50.786;4.332;2022-07-29T10:00:13;38.40;44.10
22771;DHT22;11552;50.786;4.332;2022-07-29T10:02:42;38.40;43.50
22771;DHT22;11552;50.786;4.332;2022-07-29T10:05:25;37.50;43.80
22771;DHT22;11552;50.786;4.332;2022-07-29T10:07:53;37.90;44.00
22771;DHT22;11552;50.786;4.332;2022-07-29T10:10:21;36.50;45.40
22771;DHT22;11552;50.786;4.332;2022-07-29T10:13:01;35.60;46.50
22771;DHT22;11552;50.786;4.332;2022-07-29T10:15:29;34.60;48.40
22771;DHT22;11552;50.786;4.332;2022-07-29T10:17:56;33.60;49.20
22771;DHT22;11552;50.786;4.332;2022-07-29T10:20:23;33.40;49.20
22771;DHT22;11552;50.786;4.332;2022-07-29T10:22:50;33.50;49.10
22771;DHT22;11552;50.786;4.332;2022-07-29T10:25:16;33.00;50.00
22771;DHT22;11552;50.786;4.332;2022-07-29T10:27:44;31.90;51.40
22771;DHT22;11552;50.786;4.332;2022-07-29T10:30:10;33.20;50.60
22771;DHT22;11552;50.786;4.332;2022-07-29T10:35:38;33.00;49.50
22771;DHT22;11552;50.786;4.332;2022-07-29T10:41:21;30.40;54.20
22771;DHT22;11552;50.786;4.332;2022-07-29T10:44:03;29.80;54.90
22771;DHT22;11552;50.786;4.332;2022-07-29T10:46:35;29.30;56.00
22771;DHT22;11552;50.786;4.332;2022-07-29T10:49:19;29.40;55.70
22771;DHT22;11552;50.786;4.332;2022-07-29T10:51:55;28.70;56.70
22771;DHT22;11552;50.786;4.332;2022-07-29T10:59:45;27.90;58.80
22771;DHT22;11552;50.786;4.332;2022-07-29T11:05:19;27.90;59.30
22771;DHT22;11552;50.786;4.332;2022-07-29T11:10:42;27.90;59.50
22771;DHT22;11552;50.786;4.332;2022-07-29T11:13:08;28.10;59.60
22771;DHT22;11552;50.786;4.332;2022-07-29T11:15:52;28.30;60.10
22771;DHT22;11552;50.786;4.332;2022-07-29T11:18:18;28.50;59.80
22771;DHT22;11552;50.786;4.332;2022-07-29T11:20:48;28.60;59.70
22771;DHT22;11552;50.786;4.332;2022-07-29T11:23:30;28.50;59.20
22771;DHT22;11552;50.786;4.332;2022-07-29T11:26:18;28.70;58.60
22771;DHT22;11552;50.786;4.332;2022-07-29T11:31:42;28.70;56.90
22771;DHT22;11552;50.786;4.332;2022-07-29T11:34:22;28.50;57.90
22771;DHT22;11552;50.786;4.332;2022-07-29T11:39:34;28.50;56.70
22771;DHT22;11552;50.786;4.332;2022-07-29T11:45:00;28.10;57.20
22771;DHT22;11552;50.786;4.332;2022-07-29T11:47:28;28.10;56.20
22771;DHT22;11552;50.786;4.332;2022-07-29T11:49:55;28.00;55.30
22771;DHT22;11552;50.786;4.332;2022-07-29T11:52:22;27.80;55.50
22771;DHT22;11552;50.786;4.332;2022-07-29T11:54:50;27.10;59.00
22771;DHT22;11552;50.786;4.332;2022-07-29T11:57:19;27.60;58.50
22771;DHT22;11552;50.786;4.332;2022-07-29T11:59:46;28.00;57.80
22771;DHT22;11552;50.786;4.332;2022-07-29T12:02:14;28.30;58.00
22771;DHT22;11552;50.786;4.332;2022-07-29T12:04:51;28.60;57.70
22771;DHT22;11552;50.786;4.332;2022-07-29T12:07:17;28.80;56.70
22771;DHT22;11552;50.786;4.332;2022-07-29T12:09:50;28.90;56.00
22771;DHT22;11552;50.786;4.332;2022-07-29T12:12:20;28.90;56.00
22771;DHT22;11552;50.786;4.332;2022-07-29T12:14:45;28.90;56.00
22771;DHT22;11552;50.786;4.332;2022-07-29T12:17:30;28.30;56.90
22771;DHT22;11552;50.786;4.332;2022-07-29T12:19:58;28.00;58.50
22771;DHT22;11552;50.786;4.332;2022-07-29T12:22:32;28.50;58.30
22771;DHT22;11552;50.786;4.332;2022-07-29T12:25:04;28.90;57.20
22771;DHT22;11552;50.786;4.332;2022-07-29T12:27:30;29.00;56.10
22771;DHT22;11552;50.786;4.332;2022-07-29T12:30:01;29.40;55.20
22771;DHT22;11552;50.786;4.332;2022-07-29T12:32:47;29.60;55.80
22771;DHT22;11552;50.786;4.332;2022-07-29T12:35:16;29.90;54.70
22771;DHT22;11552;50.786;4.332;2022-07-29T12:37:44;29.80;55.00
22771;DHT22;11552;50.786;4.332;2022-07-29T12:40:12;29.60;54.70
22771;DHT22;11552;50.786;4.332;2022-07-29T12:42:38;29.50;54.60
22771;DHT22;11552;50.786;4.332;2022-07-29T12:45:05;29.20;55.30
22771;DHT22;11552;50.786;4.332;2022-07-29T12:47:31;29.10;55.50
22771;DHT22;11552;50.786;4.332;2022-07-29T12:50:11;29.20;55.70
22771;DHT22;11552;50.786;4.332;2022-07-29T12:52:37;29.30;55.90
22771;DHT22;11552;50.786;4.332;2022-07-29T12:55:03;29.50;55.90
22771;DHT22;11552;50.786;4.332;2022-07-29T12:57:29;29.70;55.30
22771;DHT22;11552;50.786;4.332;2022-07-29T13:00:02;29.90;55.00
22771;DHT22;11552;50.786;4.332;2022-07-29T13:02:28;29.80;55.20
22771;DHT22;11552;50.786;4.332;2022-07-29T13:04:56;29.40;55.00
22771;DHT22;11552;50.786;4.332;2022-07-29T13:07:30;29.10;55.40
22771;DHT22;11552;50.786;4.332;2022-07-29T13:10:29;28.80;56.40
22771;DHT22;11552;50.786;4.332;2022-07-29T13:13:11;28.90;56.60
22771;DHT22;11552;50.786;4.332;2022-07-29T13:15:40;28.70;57.10
22771;DHT22;11552;50.786;4.332;2022-07-29T13:18:32;28.60;58.10
22771;DHT22;11552;50.786;4.332;2022-07-29T13:21:11;29.00;57.90
22771;DHT22;11552;50.786;4.332;2022-07-29T13:23:38;29.00;57.20
22771;DHT22;11552;50.786;4.332;2022-07-29T13:26:11;29.20;56.50
22771;DHT22;11552;50.786;4.332;2022-07-29T13:28:37;29.50;56.80
22771;DHT22;11552;50.786;4.332;2022-07-29T13:31:02;29.70;57.10
22771;DHT22;11552;50.786;4.332;2022-07-29T13:33:28;29.90;55.70
22771;DHT22;11552;50.786;4.332;2022-07-29T13:35:54;29.70;55.80
22771;DHT22;11552;50.786;4.332;2022-07-29T13:38:20;29.60;56.60
22771;DHT22;11552;50.786;4.332;2022-07-29T13:40:45;29.50;56.60
22771;DHT22;11552;50.786;4.332;2022-07-29T13:43:11;29.50;56.90
22771;DHT22;11552;50.786;4.332;2022-07-29T13:45:37;29.30;56.40
22771;DHT22;11552;50.786;4.332;2022-07-29T13:48:03;29.00;56.80
22771;DHT22;11552;50.786;4.332;2022-07-29T13:50:29;29.00;57.50
22771;DHT22;11552;50.786;4.332;2022-07-29T13:52:55;29.20;57.00
22771;DHT22;11552;50.786;4.332;2022-07-29T13:55:20;29.10;56.50
22771;DHT22;11552;50.786;4.332;2022-07-29T13:57:46;29.20;56.70
22771;DHT22;11552;50.786;4.332;2022-07-29T14:00:13;29.30;55.80
22771;DHT22;11552;50.786;4.332;2022-07-29T14:02:39;29.20;57.10
22771;DHT22;11552;50.786;4.332;2022-07-29T14:05:06;29.20;56.60
22771;DHT22;11552;50.786;4.332;2022-07-29T14:07:32;29.40;56.00
22771;DHT22;11552;50.786;4.332;2022-07-29T14:09:57;29.70;55.90
22771;DHT22;11552;50.786;4.332;2022-07-29T14:12:23;29.60;54.50
22771;DHT22;11552;50.786;4.332;2022-07-29T14:14:49;29.30;53.90
22771;DHT22;11552;50.786;4.332;2022-07-29T14:17:15;29.30;54.40
22771;DHT22;11552;50.786;4.332;2022-07-29T14:19:41;28.80;54.50
22771;DHT22;11552;50.786;4.332;2022-07-29T14:22:08;28.50;55.60
22771;DHT22;11552;50.786;4.332;2022-07-29T14:24:34;28.50;55.70
22771;DHT22;11552;50.786;4.332;2022-07-29T14:27:00;28.50;55.20
22771;DHT22;11552;50.786;4.332;2022-07-29T14:29:26;28.70;54.90
22771;DHT22;11552;50.786;4.332;2022-07-29T14:31:51;28.90;54.70
22771;DHT22;11552;50.786;4.332;2022-07-29T14:34:17;28.80;53.00
22771;DHT22;11552;50.786;4.332;2022-07-29T14:36:43;28.60;52.20
22771;DHT22;11552;50.786;4.332;2022-07-29T14:39:09;28.40;52.50
22771;DHT22;11552;50.786;4.332;2022-07-29T14:41:34;28.50;54.00
22771;DHT22;11552;50.786;4.332;2022-07-29T14:44:00;28.50;54.80
22771;DHT22;11552;50.786;4.332;2022-07-29T14:46:27;28.50;54.70
22771;DHT22;11552;50.786;4.332;2022-07-29T14:48:52;28.70;54.90
22771;DHT22;11552;50.786;4.332;2022-07-29T14:51:18;29.00;55.00
22771;DHT22;11552;50.786;4.332;2022-07-29T14:53:44;29.20;55.10
22771;DHT22;11552;50.786;4.332;2022-07-29T14:56:09;29.10;54.80
22771;DHT22;11552;50.786;4.332;2022-07-29T14:58:35;29.30;54.40
22771;DHT22;11552;50.786;4.332;2022-07-29T15:01:01;29.10;54.50
22771;DHT22;11552;50.786;4.332;2022-07-29T15:03:27;28.90;54.00
22771;DHT22;11552;50.786;4.332;2022-07-29T15:05:55;29.00;54.70
22771;DHT22;11552;50.786;4.332;2022-07-29T15:08:21;28.80;54.40
22771;DHT22;11552;50.786;4.332;2022-07-29T15:10:47;28.90;53.90
22771;DHT22;11552;50.786;4.332;2022-07-29T15:13:12;29.10;54.60
22771;DHT22;11552;50.786;4.332;2022-07-29T15:15:38;29.20;54.30
22771;DHT22;11552;50.786;4.332;2022-07-29T15:18:04;29.30;53.40
22771;DHT22;11552;50.786;4.332;2022-07-29T15:20:30;29.30;52.40
22771;DHT22;11552;50.786;4.332;2022-07-29T15:22:56;29.50;52.10
22771;DHT22;11552;50.786;4.332;2022-07-29T15:25:22;29.50;52.70
22771;DHT22;11552;50.786;4.332;2022-07-29T15:27:48;29.50;53.50
22771;DHT22;11552;50.786;4.332;2022-07-29T15:30:14;29.30;54.00
22771;DHT22;11552;50.786;4.332;2022-07-29T15:32:42;29.60;54.70
22771;DHT22;11552;50.786;4.332;2022-07-29T15:35:08;29.60;54.40
22771;DHT22;11552;50.786;4.332;2022-07-29T15:37:38;29.50;53.80
22771;DHT22;11552;50.786;4.332;2022-07-29T15:40:05;29.50;54.20
22771;DHT22;11552;50.786;4.332;2022-07-29T15:42:31;29.60;53.10
22771;DHT22;11552;50.786;4.332;2022-07-29T15:44:57;29.60;53.70
22771;DHT22;11552;50.786;4.332;2022-07-29T15:47:28;29.70;54.20
22771;DHT22;11552;50.786;4.332;2022-07-29T15:49:54;29.50;54.00
22771;DHT22;11552;50.786;4.332;2022-07-29T15:52:20;29.30;54.50
22771;DHT22;11552;50.786;4.332;2022-07-29T15:54:45;29.10;54.60
22771;DHT22;11552;50.786;4.332;2022-07-29T15:57:11;29.00;55.00
22771;DHT22;11552;50.786;4.332;2022-07-29T15:59:37;29.00;55.70
22771;DHT22;11552;50.786;4.332;2022-07-29T16:02:03;29.00;55.60
22771;DHT22;11552;50.786;4.332;2022-07-29T16:04:28;28.80;55.50
22771;DHT22;11552;50.786;4.332;2022-07-29T16:06:54;28.80;56.00
22771;DHT22;11552;50.786;4.332;2022-07-29T16:09:20;28.80;55.80
22771;DHT22;11552;50.786;4.332;2022-07-29T16:11:46;28.70;56.30
22771;DHT22;11552;50.786;4.332;2022-07-29T16:14:15;28.70;56.20
22771;DHT22;11552;50.786;4.332;2022-07-29T16:16:41;28.40;56.30
22771;DHT22;11552;50.786;4.332;2022-07-29T16:19:07;28.50;56.40